createdAt,value
2022-08-16T00:00:52.117Z,13.00
2022-08-16T00:03:25.302Z,13.40
2022-08-16T00:05:58.601Z,14.10
2022-08-16T00:08:37.122Z,13.40
2022-08-16T00:11:15.036Z,13.90
2022-08-16T00:13:53.861Z,14.00
2022-08-16T00:17:00.905Z,14.20
2022-08-16T00:19:28.203Z,14.60
2022-08-16T00:22:06.814Z,13.90
2022-08-16T00:24:46.790Z,15.00
2022-08-16T00:27:20.815Z,14.50
2022-08-16T00:30:00.871Z,15.00
2022-08-16T00:32:48.069Z,14.70
2022-08-16T00:35:25.867Z,14.80
2022-08-16T00:38:03.032Z,13.80
2022-08-16T00:40:57.799Z,14.60
2022-08-16T00:43:42.817Z,15.00
2022-08-16T00:46:34.191Z,14.70
2022-08-16T00:49:17.310Z,14.70
2022-08-16T00:51:55.555Z,14.70
2022-08-16T00:54:32.981Z,14.80
2022-08-16T00:57:07.456Z,14.80
2022-08-16T00:59:50.735Z,15.20
2022-08-16T01:02:33.084Z,15.80
2022-08-16T01:05:10.591Z,15.80
2022-08-16T01:07:51.591Z,14.80
2022-08-16T01:10:32.549Z,15.00
2022-08-16T01:13:12.336Z,14.70
2022-08-16T01:15:52.681Z,15.10
2022-08-16T01:18:40.172Z,15.70
2022-08-16T01:21:23.112Z,15.10
2022-08-16T01:24:52.180Z,15.00
2022-08-16T01:27:15.130Z,14.90
2022-08-16T01:29:58.369Z,14.80
2022-08-16T01:32:36.033Z,14.90
2022-08-16T01:35:17.711Z,15.90
2022-08-16T01:37:55.214Z,15.40
2022-08-16T01:40:32.209Z,15.50
2022-08-16T01:43:08.347Z,15.50
2022-08-16T01:45:41.754Z,15.30
2022-08-16T01:48:20.141Z,16.00
2022-08-16T01:51:08.789Z,16.00
2022-08-16T01:53:43.611Z,15.10
2022-08-16T01:56:24.972Z,15.20
2022-08-16T01:59:00.194Z,14.70
2022-08-16T02:01:34.935Z,14.80
2022-08-16T02:04:11.007Z,15.60
2022-08-16T02:06:47.066Z,16.60
2022-08-16T02:09:21.499Z,15.80
2022-08-16T02:11:57.776Z,16.10
2022-08-16T02:14:31.588Z,15.80
2022-08-16T02:17:07.178Z,16.00
2022-08-16T02:19:59.329Z,15.90
2022-08-16T02:22:36.732Z,15.00
2022-08-16T02:25:14.863Z,15.80
2022-08-16T02:27:51.018Z,15.30
2022-08-16T02:30:35.939Z,15.90
2022-08-16T02:33:15.628Z,15.50
2022-08-16T02:35:54.016Z,15.60
2022-08-16T02:38:29.205Z,15.60
2022-08-16T02:41:07.369Z,15.30
2022-08-16T02:43:42.694Z,15.50
2022-08-16T02:46:15.109Z,15.40
2022-08-16T02:48:49.494Z,15.80
2022-08-16T02:51:23.317Z,16.90
2022-08-16T02:53:56.689Z,17.20
2022-08-16T02:56:32.368Z,17.90
2022-08-16T02:59:11.819Z,17.60
2022-08-16T03:01:46.940Z,17.60
2022-08-16T03:04:49.915Z,17.10
2022-08-16T03:07:15.938Z,16.80
2022-08-16T03:10:00.828Z,18.40
2022-08-16T03:12:36.658Z,17.30
2022-08-16T03:15:12.345Z,18.70
2022-08-16T03:17:53.221Z,17.80
2022-08-16T03:20:32.589Z,18.50
2022-08-16T03:23:09.379Z,18.60
2022-08-16T03:25:44.620Z,19.90
2022-08-16T03:28:18.484Z,19.60
2022-08-16T03:30:50.588Z,20.00
2022-08-16T03:33:24.975Z,19.70
2022-08-16T03:36:29.675Z,21.50
2022-08-16T03:38:56.854Z,20.20
2022-08-16T03:41:29.617Z,25.50
2022-08-16T03:44:43.985Z,24.30
2022-08-16T03:47:18.958Z,23.80
2022-08-16T03:49:52.650Z,25.60
2022-08-16T03:52:29.942Z,26.80
2022-08-16T03:55:05.510Z,28.80
2022-08-16T03:57:42.761Z,29.40
2022-08-16T04:00:40.295Z,26.90
2022-08-16T04:03:13.600Z,26.70
2022-08-16T04:05:54.160Z,29.00
2022-08-16T04:08:27.134Z,43.60
2022-08-16T04:10:59.704Z,47.00
2022-08-16T04:14:01.492Z,37.30
2022-08-16T04:16:27.128Z,27.80
2022-08-16T04:19:02.105Z,27.20
2022-08-16T04:21:46.091Z,25.70
2022-08-16T04:24:20.438Z,28.20
2022-08-16T04:26:53.198Z,29.40
2022-08-16T04:29:44.142Z,27.90
2022-08-16T04:32:19.695Z,28.30
2022-08-16T04:34:52.530Z,23.00
2022-08-16T04:37:25.525Z,21.70
2022-08-16T04:39:58.186Z,21.40
2022-08-16T04:42:35.833Z,20.50
2022-08-16T04:45:14.868Z,21.10
2022-08-16T04:47:56.315Z,20.70
2022-08-16T04:50:30.743Z,20.10
2022-08-16T04:53:05.634Z,19.90
2022-08-16T04:55:38.935Z,19.70
2022-08-16T04:58:38.433Z,19.60
2022-08-16T05:01:08.036Z,20.00
2022-08-16T05:03:41.770Z,19.60
2022-08-16T05:06:14.676Z,20.30
2022-08-16T05:08:50.539Z,24.00
2022-08-16T05:11:32.089Z,27.20
2022-08-16T05:14:05.612Z,24.00
2022-08-16T05:16:41.569Z,21.00
2022-08-16T05:19:16.475Z,20.50
2022-08-16T05:21:50.422Z,21.40
2022-08-16T05:24:24.913Z,18.10
2022-08-16T05:26:59.576Z,19.00
2022-08-16T05:30:00.966Z,18.90
2022-08-16T05:32:36.624Z,18.40
2022-08-16T05:35:20.223Z,17.60
2022-08-16T05:37:57.395Z,19.30
2022-08-16T05:40:30.976Z,18.40
2022-08-16T05:43:04.016Z,18.30
2022-08-16T05:45:37.208Z,18.20
2022-08-16T05:48:09.905Z,17.70
2022-08-16T05:50:45.145Z,17.00
2022-08-16T05:53:25.594Z,16.30
2022-08-16T05:55:59.153Z,16.50
2022-08-16T05:58:35.341Z,16.30
2022-08-16T06:01:11.743Z,16.20
2022-08-16T06:03:44.447Z,16.50
2022-08-16T06:06:28.078Z,16.90
2022-08-16T06:09:03.431Z,16.90
2022-08-16T06:11:35.875Z,16.40
2022-08-16T06:14:09.511Z,15.90
2022-08-16T06:16:42.490Z,14.50
2022-08-16T06:19:15.097Z,14.30
2022-08-16T06:21:55.027Z,14.40
2022-08-16T06:24:53.595Z,15.60
2022-08-16T06:27:25.095Z,15.70
2022-08-16T06:29:58.489Z,16.40
2022-08-16T06:32:37.013Z,17.00
2022-08-16T06:35:16.134Z,17.00
2022-08-16T06:37:51.228Z,17.30
2022-08-16T06:40:33.658Z,17.00
2022-08-16T06:43:07.335Z,17.50
2022-08-16T06:45:49.881Z,15.70
2022-08-16T06:48:33.058Z,17.70
2022-08-16T06:51:09.997Z,17.00
2022-08-16T06:53:44.250Z,16.40
2022-08-16T06:56:23.146Z,15.90
2022-08-16T06:58:57.804Z,14.20
2022-08-16T07:01:45.060Z,13.30
2022-08-16T07:04:32.340Z,11.90
2022-08-16T07:07:09.711Z,11.90
2022-08-16T07:09:43.913Z,12.20
2022-08-16T07:12:16.108Z,12.10
2022-08-16T07:14:49.876Z,12.70
2022-08-16T07:17:24.005Z,12.70
2022-08-16T07:20:04.117Z,13.70
2022-08-16T07:22:58.738Z,13.40
2022-08-16T07:25:32.022Z,13.00
2022-08-16T07:28:05.211Z,13.40
2022-08-16T07:30:46.512Z,13.30
2022-08-16T07:33:51.710Z,12.40
2022-08-16T07:36:13.432Z,12.70
2022-08-16T07:38:54.607Z,12.70
2022-08-16T07:41:27.422Z,12.20
2022-08-16T07:44:02.700Z,12.20
2022-08-16T07:46:55.561Z,12.00
2022-08-16T07:49:32.255Z,11.40
2022-08-16T07:52:18.969Z,11.00
2022-08-16T07:54:54.559Z,12.60
2022-08-16T07:57:29.664Z,12.10
2022-08-16T08:00:03.673Z,11.90
2022-08-16T08:02:38.945Z,11.60
2022-08-16T08:05:14.979Z,11.30
2022-08-16T08:07:48.068Z,10.60
2022-08-16T08:10:29.218Z,10.30
2022-08-16T08:13:04.399Z,10.50
2022-08-16T08:15:37.036Z,10.40
2022-08-16T08:18:28.910Z,10.90
2022-08-16T08:21:02.655Z,10.50
2022-08-16T08:23:42.420Z,11.20
2022-08-16T08:26:17.862Z,10.60
2022-08-16T08:28:50.514Z,10.00
2022-08-16T08:31:23.187Z,9.60
2022-08-16T08:33:56.931Z,9.30
2022-08-16T08:36:34.197Z,9.00
2022-08-16T08:39:12.983Z,9.70
2022-08-16T08:41:49.431Z,8.70
2022-08-16T08:44:29.449Z,8.30
2022-08-16T08:47:12.166Z,8.10
2022-08-16T08:49:50.223Z,8.30
2022-08-16T08:52:34.849Z,9.40
2022-08-16T08:55:13.153Z,9.80
2022-08-16T08:57:49.261Z,9.30
2022-08-16T09:00:26.941Z,9.10
2022-08-16T09:03:04.825Z,9.10
2022-08-16T09:05:43.994Z,9.70
2022-08-16T09:08:19.651Z,9.40
2022-08-16T09:11:01.894Z,9.10
2022-08-16T09:13:37.760Z,9.20
2022-08-16T09:17:01.614Z,8.80
2022-08-16T09:19:13.413Z,9.10
2022-08-16T09:21:56.248Z,9.90
2022-08-16T09:24:51.746Z,10.60
2022-08-16T09:27:25.237Z,9.80
2022-08-16T09:29:59.779Z,9.20
2022-08-16T09:32:35.313Z,9.50
2022-08-16T09:35:11.155Z,9.70
2022-08-16T09:37:44.505Z,9.00
2022-08-16T09:40:42.556Z,10.20
2022-08-16T09:43:58.036Z,10.00
2022-08-16T09:46:44.923Z,10.60
2022-08-16T09:49:12.118Z,10.00
2022-08-16T09:51:46.587Z,8.90
2022-08-16T09:54:23.048Z,9.70
2022-08-16T09:56:55.809Z,10.40
2022-08-16T09:59:30.799Z,10.10
2022-08-16T10:02:26.135Z,9.50
2022-08-16T10:04:59.004Z,9.70
2022-08-16T10:07:44.210Z,9.30
2022-08-16T10:10:30.375Z,9.50
2022-08-16T10:13:16.521Z,9.60
2022-08-16T10:15:55.980Z,9.10
2022-08-16T10:18:56.423Z,9.60
2022-08-16T10:21:23.948Z,9.60
2022-08-16T10:23:56.923Z,9.50
2022-08-16T10:27:20.024Z,9.10
2022-08-16T10:29:25.731Z,8.50
2022-08-16T10:32:20.840Z,9.00
2022-08-16T10:34:53.619Z,9.40
2022-08-16T10:37:36.047Z,9.70
2022-08-16T10:40:28.664Z,9.50
2022-08-16T10:43:08.427Z,8.50
2022-08-16T10:46:00.963Z,8.60
2022-08-16T10:48:34.612Z,8.60
2022-08-16T10:51:14.659Z,8.70
2022-08-16T10:53:47.279Z,8.80
2022-08-16T10:56:52.627Z,8.50
2022-08-16T11:02:57.835Z,8.20
2022-08-16T11:05:07.081Z,7.90
2022-08-16T11:07:47.252Z,8.10
2022-08-16T11:16:26.881Z,8.20
2022-08-16T11:19:05.345Z,8.40
2022-08-16T11:24:44.714Z,8.20
2022-08-16T11:27:24.137Z,8.60
2022-08-16T11:29:59.757Z,7.80
2022-08-16T11:32:35.729Z,7.70
2022-08-16T11:35:14.819Z,8.10
2022-08-16T11:38:47.213Z,8.40
2022-08-16T11:40:53.154Z,8.10
2022-08-16T11:43:27.739Z,7.40
2022-08-16T11:46:44.753Z,8.70
2022-08-16T11:48:58.314Z,8.10
2022-08-16T11:51:32.648Z,8.10
2022-08-16T11:54:05.479Z,7.60
2022-08-16T11:56:53.099Z,7.30
2022-08-16T11:59:32.848Z,7.60
2022-08-16T12:02:31.106Z,7.70
2022-08-16T12:05:03.897Z,7.30
2022-08-16T14:16:47.352Z,9.00
2022-08-16T14:19:22.512Z,8.60
2022-08-16T14:22:13.583Z,9.20
2022-08-16T14:24:48.985Z,8.90
2022-08-16T14:27:22.256Z,9.50
2022-08-16T14:29:55.394Z,9.60
2022-08-16T14:32:33.105Z,8.60
2022-08-16T14:35:09.165Z,8.40
2022-08-16T14:37:43.016Z,8.70
2022-08-16T14:40:17.487Z,8.60
2022-08-16T14:42:50.601Z,8.70
2022-08-16T14:45:27.683Z,9.40
2022-08-16T14:48:00.038Z,9.20
2022-08-16T14:50:32.277Z,9.20
2022-08-16T14:53:07.299Z,8.80
2022-08-16T14:55:41.346Z,8.60
2022-08-16T14:58:19.179Z,8.30
2022-08-16T15:00:52.084Z,8.20
2022-08-16T15:03:25.722Z,8.40
2022-08-16T15:05:59.455Z,8.70
2022-08-16T15:08:34.187Z,8.10
2022-08-16T15:11:12.166Z,8.00
2022-08-16T15:13:46.569Z,8.20
2022-08-16T15:16:19.595Z,8.60
2022-08-16T15:18:53.394Z,8.20
2022-08-16T15:21:26.797Z,8.80
2022-08-16T15:24:06.492Z,8.50
2022-08-16T15:26:50.604Z,8.30
2022-08-16T15:29:23.584Z,8.20
2022-08-16T15:32:01.216Z,8.10
2022-08-16T15:34:34.209Z,7.70
2022-08-16T15:37:06.834Z,8.10
2022-08-16T15:39:40.189Z,7.80
2022-08-16T15:42:27.501Z,7.30
2022-08-16T15:45:02.365Z,7.80
2022-08-16T15:47:55.557Z,7.80
2022-08-16T15:50:32.386Z,7.90
2022-08-16T15:53:12.603Z,8.20
2022-08-16T15:55:44.979Z,8.30
2022-08-16T15:58:35.681Z,7.80
2022-08-16T16:01:11.070Z,7.40
2022-08-16T16:03:44.747Z,8.30
2022-08-16T16:06:21.288Z,7.50
2022-08-16T16:09:02.950Z,7.30
2022-08-16T16:11:38.931Z,7.40
2022-08-16T16:14:11.487Z,8.20
2022-08-16T16:16:50.644Z,8.10
2022-08-16T16:19:26.630Z,8.70
2022-08-16T16:22:03.583Z,8.40
2022-08-16T16:24:37.242Z,8.50
2022-08-16T16:27:12.505Z,8.60
2022-08-16T16:29:46.410Z,8.90
2022-08-16T16:32:34.718Z,8.80
2022-08-16T16:35:10.793Z,8.60
2022-08-16T16:37:44.897Z,8.60
2022-08-16T16:40:23.987Z,8.20
2022-08-16T16:43:08.710Z,8.30
2022-08-16T16:45:46.638Z,8.70
2022-08-16T16:48:22.079Z,8.30
2022-08-16T16:51:09.575Z,8.30
2022-08-16T16:53:55.909Z,8.20
2022-08-16T16:56:37.268Z,9.30
2022-08-16T16:59:12.231Z,8.50
2022-08-16T17:02:00.530Z,8.40
2022-08-16T17:04:42.681Z,8.60
2022-08-16T17:07:15.553Z,8.70
2022-08-16T17:09:47.967Z,8.80
2022-08-16T17:12:25.230Z,9.10
2022-08-16T17:15:14.912Z,8.60
2022-08-16T17:17:59.962Z,9.80
2022-08-16T17:20:36.182Z,8.80
2022-08-16T17:23:10.965Z,8.40
2022-08-16T17:28:59.593Z,9.10
2022-08-16T17:31:40.604Z,8.50
2022-08-16T17:37:08.191Z,8.70
2022-08-16T17:39:28.171Z,8.80
2022-08-16T17:39:28.490Z,9.20
2022-08-16T17:39:59.527Z,9.40
2022-08-16T17:42:34.191Z,10.30
2022-08-16T17:45:07.059Z,9.20
2022-08-16T17:47:39.443Z,10.50
2022-08-16T17:50:12.830Z,10.00
2022-08-16T17:52:55.811Z,11.20
2022-08-16T17:55:33.169Z,10.60
2022-08-16T17:58:23.096Z,9.20
2022-08-16T18:01:02.064Z,10.50
2022-08-16T18:04:02.507Z,9.90
2022-08-16T18:06:31.246Z,10.80
2022-08-16T18:09:04.168Z,10.20
2022-08-16T18:11:40.785Z,11.10
2022-08-16T18:14:15.879Z,12.00
2022-08-16T18:16:49.948Z,11.70
2022-08-16T18:19:22.637Z,11.00
2022-08-16T18:22:09.001Z,10.60
2022-08-16T18:24:42.185Z,10.90
2022-08-16T18:27:25.851Z,10.60
2022-08-16T18:29:59.451Z,11.10
2022-08-16T18:32:33.192Z,12.30
2022-08-16T18:35:06.612Z,11.00
2022-08-16T18:37:38.889Z,11.40
2022-08-16T18:40:14.909Z,11.80
2022-08-16T18:42:58.368Z,11.40
2022-08-16T18:45:35.081Z,12.50
2022-08-16T18:48:10.493Z,12.30
2022-08-16T18:51:03.846Z,11.70
2022-08-16T18:53:39.046Z,13.20
2022-08-16T18:56:11.512Z,12.20
2022-08-16T18:58:44.196Z,12.30
2022-08-16T19:01:17.494Z,12.60
2022-08-16T19:03:50.247Z,12.20
2022-08-16T19:06:24.696Z,12.60
2022-08-16T19:08:57.792Z,12.60
2022-08-16T19:11:30.911Z,12.40
2022-08-16T19:14:05.398Z,12.70
2022-08-16T19:16:39.592Z,12.40
2022-08-16T19:19:12.583Z,13.00
2022-08-16T19:21:46.129Z,12.80
2022-08-16T19:24:20.925Z,13.30
2022-08-16T19:26:54.475Z,14.40
2022-08-16T19:29:30.163Z,12.80
2022-08-16T19:32:03.011Z,13.30
2022-08-16T19:34:36.985Z,13.70
2022-08-16T19:37:10.142Z,14.70
2022-08-16T19:39:43.003Z,15.10
2022-08-16T19:42:20.239Z,13.90
2022-08-16T19:44:55.832Z,13.50
2022-08-16T19:47:28.805Z,14.50
2022-08-16T19:50:02.803Z,14.70
2022-08-16T19:52:37.285Z,16.20
2022-08-16T19:55:13.173Z,16.90
2022-08-16T19:57:48.737Z,15.60
2022-08-16T20:00:21.984Z,15.90
2022-08-16T20:03:15.469Z,15.90
2022-08-16T20:05:49.703Z,16.50
2022-08-16T20:08:23.210Z,15.20
2022-08-16T20:10:56.445Z,15.40
2022-08-16T20:13:29.133Z,15.40
2022-08-16T20:16:03.729Z,14.90
2022-08-16T20:18:37.981Z,15.10
2022-08-16T20:21:10.619Z,14.20
2022-08-16T20:23:42.684Z,14.70
2022-08-16T20:26:14.756Z,14.40
2022-08-16T20:28:54.007Z,14.70
2022-08-16T20:31:27.107Z,14.90
2022-08-16T20:33:59.907Z,14.90
2022-08-16T20:36:33.785Z,15.90
2022-08-16T20:39:07.930Z,16.60
2022-08-16T20:41:41.109Z,15.80
2022-08-16T20:44:14.215Z,16.30
2022-08-16T20:46:46.261Z,15.80
2022-08-16T20:49:18.761Z,15.10
2022-08-16T20:51:56.067Z,16.10
2022-08-16T20:54:32.889Z,15.50
2022-08-16T20:57:07.205Z,16.10
2022-08-16T20:59:43.775Z,17.10
2022-08-16T21:02:27.198Z,16.30
2022-08-16T21:04:59.285Z,16.70
2022-08-16T21:07:33.819Z,16.40
2022-08-16T21:10:08.791Z,16.60
2022-08-16T21:12:50.853Z,16.20
2022-08-16T21:15:24.033Z,16.90
2022-08-16T21:17:57.509Z,18.00
2022-08-16T21:20:30.670Z,16.70
2022-08-16T21:23:05.118Z,17.50
2022-08-16T21:25:42.888Z,17.50
2022-08-16T21:28:39.560Z,17.90
2022-08-16T21:31:15.983Z,17.10
2022-08-16T21:33:55.730Z,18.00
2022-08-16T21:36:35.692Z,18.20
2022-08-16T21:39:09.793Z,17.30
2022-08-16T21:41:42.525Z,17.20
2022-08-16T21:44:15.276Z,18.10
2022-08-16T21:46:48.108Z,18.70
2022-08-16T21:49:20.908Z,18.50
2022-08-16T21:51:53.054Z,17.30
2022-08-16T21:54:25.944Z,17.80
2022-08-16T21:56:58.666Z,17.60
2022-08-16T21:59:31.539Z,18.50
2022-08-16T22:02:04.071Z,19.00
2022-08-16T22:04:39.128Z,18.50
2022-08-16T22:07:13.140Z,18.70
2022-08-16T22:09:46.061Z,18.00
2022-08-16T22:12:21.640Z,18.20
2022-08-16T22:14:58.791Z,19.60
2022-08-16T22:17:31.252Z,18.10
2022-08-16T22:20:03.905Z,16.80
2022-08-16T22:22:38.194Z,17.00
2022-08-16T22:25:13.106Z,17.10
2022-08-16T22:27:47.277Z,17.30
2022-08-16T22:30:19.937Z,18.10
2022-08-16T22:32:52.748Z,17.10
2022-08-16T22:35:25.549Z,18.00
2022-08-16T22:38:50.587Z,16.30
2022-08-16T22:40:50.394Z,17.00
2022-08-16T22:43:23.649Z,17.60
2022-08-16T22:45:57.454Z,19.40
2022-08-16T22:48:29.521Z,17.60
2022-08-16T22:51:03.098Z,17.30
2022-08-16T22:53:35.515Z,17.80
2022-08-16T22:56:12.394Z,17.80
2022-08-16T22:58:46.693Z,17.90
2022-08-16T23:01:21.841Z,18.00
2022-08-16T23:03:55.555Z,18.30
2022-08-16T23:06:27.454Z,18.70
2022-08-16T23:08:59.472Z,17.90
2022-08-16T23:11:31.911Z,17.80
2022-08-16T23:14:04.221Z,18.00
2022-08-16T23:16:36.387Z,18.90
2022-08-16T23:19:12.367Z,18.40
2022-08-16T23:21:48.554Z,24.20
2022-08-16T23:24:21.637Z,26.70
2022-08-16T23:26:54.247Z,26.60
2022-08-16T23:29:26.852Z,22.80
2022-08-16T23:32:11.535Z,23.30
2022-08-16T23:34:43.871Z,23.10
2022-08-16T23:37:16.052Z,21.30
2022-08-16T23:39:48.641Z,20.40
2022-08-16T23:42:53.275Z,20.60
2022-08-16T23:45:22.601Z,20.00
2022-08-16T23:47:54.886Z,20.60
2022-08-16T23:50:28.485Z,23.80
2022-08-16T23:53:04.793Z,26.10
2022-08-16T23:55:41.168Z,23.40
2022-08-16T23:58:16.200Z,22.70
